Massies Mill, Virginia
Current Conditions -  °F | °C
As of 4:15 PM on Saturday 22 Nov 2014 (Local Time) from KW13 Reporting Station
Clear Clear  
Wind Chill: 47°   Ceiling: Unl
Heat Index: 48°   Visibility: 10mi
Dew Point: 17°   Wind: 5mph
Humidity: 29%   Direction: 110°ESE
Pressure: 30.28"   Gusts: NA
Location:  37.78°N, 79°W
Report Text: KW13 222115Z AUTO 11004KT 10SM CLR 09/M08 A3028 RMK AO1 T00911083
Loading
Personal Weather Stations






























Interactive Weather Map New forecast layout! Learn more

10-Day Weather Forecast

Advertisements
Track Severe Weather on mobile